sensor_id;sensor_type;location;lat;lon;timestamp;P1;durP1;ratioP1;P2;durP2;ratioP2
6902;SDS011;20232;49.408;8.702;2022-07-23T04:01:31;6.67;;;5.90;;
6902;SDS011;20232;49.408;8.702;2022-07-23T04:03:56;8.20;;;7.07;;
6902;SDS011;20232;49.408;8.702;2022-07-23T04:06:22;7.63;;;6.93;;
6902;SDS011;20232;49.408;8.702;2022-07-23T04:08:48;7.67;;;6.87;;
6902;SDS011;20232;49.408;8.702;2022-07-23T04:11:13;8.00;;;6.67;;
6902;SDS011;20232;49.408;8.702;2022-07-23T04:13:39;7.67;;;6.97;;
6902;SDS011;20232;49.408;8.702;2022-07-23T04:16:05;9.77;;;7.03;;
6902;SDS011;20232;49.408;8.702;2022-07-23T04:18:31;8.00;;;7.20;;
6902;SDS011;20232;49.408;8.702;2022-07-23T04:20:57;7.60;;;6.90;;
6902;SDS011;20232;49.408;8.702;2022-07-23T04:23:22;7.60;;;6.90;;
6902;SDS011;20232;49.408;8.702;2022-07-23T04:25:48;10.87;;;7.17;;
6902;SDS011;20232;49.408;8.702;2022-07-23T04:28:14;8.40;;;7.63;;
6902;SDS011;20232;49.408;8.702;2022-07-23T04:30:39;8.70;;;7.93;;
6902;SDS011;20232;49.408;8.702;2022-07-23T04:33:05;10.03;;;7.97;;
6902;SDS011;20232;49.408;8.702;2022-07-23T04:35:32;9.10;;;7.97;;
6902;SDS011;20232;49.408;8.702;2022-07-23T04:38:01;9.00;;;8.10;;
6902;SDS011;20232;49.408;8.702;2022-07-23T04:40:27;9.13;;;8.10;;
6902;SDS011;20232;49.408;8.702;2022-07-23T04:42:53;8.97;;;8.17;;
6902;SDS011;20232;49.408;8.702;2022-07-23T04:45:18;9.50;;;8.60;;
6902;SDS011;20232;49.408;8.702;2022-07-23T04:47:44;9.90;;;8.73;;
6902;SDS011;20232;49.408;8.702;2022-07-23T04:50:10;10.63;;;8.90;;
6902;SDS011;20232;49.408;8.702;2022-07-23T04:52:36;9.33;;;8.43;;
6902;SDS011;20232;49.408;8.702;2022-07-23T04:55:01;9.40;;;8.50;;
6902;SDS011;20232;49.408;8.702;2022-07-23T04:57:28;10.50;;;8.47;;
6902;SDS011;20232;49.408;8.702;2022-07-23T04:59:53;9.30;;;8.50;;
6902;SDS011;20232;49.408;8.702;2022-07-23T05:02:19;9.10;;;8.20;;
6902;SDS011;20232;49.408;8.702;2022-07-23T05:04:45;8.83;;;8.00;;
6902;SDS011;20232;49.408;8.702;2022-07-23T05:07:10;9.23;;;8.27;;
6902;SDS011;20232;49.408;8.702;2022-07-23T05:09:36;9.87;;;8.97;;
6902;SDS011;20232;49.408;8.702;2022-07-23T05:12:01;9.23;;;7.87;;
6902;SDS011;20232;49.408;8.702;2022-07-23T05:14:27;9.37;;;8.40;;
6902;SDS011;20232;49.408;8.702;2022-07-23T05:16:53;9.30;;;8.40;;
6902;SDS011;20232;49.408;8.702;2022-07-23T05:19:18;8.77;;;7.97;;
6902;SDS011;20232;49.408;8.702;2022-07-23T05:21:44;9.10;;;8.20;;
6902;SDS011;20232;49.408;8.702;2022-07-23T05:24:10;9.07;;;8.23;;
6902;SDS011;20232;49.408;8.702;2022-07-23T05:26:35;10.07;;;8.20;;
6902;SDS011;20232;49.408;8.702;2022-07-23T05:29:01;9.27;;;8.30;;
6902;SDS011;20232;49.408;8.702;2022-07-23T05:31:27;9.13;;;8.23;;
6902;SDS011;20232;49.408;8.702;2022-07-23T05:33:52;9.80;;;8.87;;
6902;SDS011;20232;49.408;8.702;2022-07-23T05:36:18;9.23;;;8.33;;
6902;SDS011;20232;49.408;8.702;2022-07-23T05:38:43;9.20;;;8.30;;
6902;SDS011;20232;49.408;8.702;2022-07-23T05:41:09;11.07;;;9.17;;
6902;SDS011;20232;49.408;8.702;2022-07-23T05:43:35;9.20;;;8.40;;
6902;SDS011;20232;49.408;8.702;2022-07-23T05:46:00;10.30;;;9.40;;
6902;SDS011;20232;49.408;8.702;2022-07-23T05:48:26;10.20;;;9.07;;
6902;SDS011;20232;49.408;8.702;2022-07-23T05:50:51;12.23;;;9.93;;
6902;SDS011;20232;49.408;8.702;2022-07-23T05:53:17;11.60;;;10.40;;
6902;SDS011;20232;49.408;8.702;2022-07-23T05:55:43;11.90;;;10.70;;
6902;SDS011;20232;49.408;8.702;2022-07-23T05:58:08;11.67;;;10.53;;
6902;SDS011;20232;49.408;8.702;2022-07-23T06:00:34;13.23;;;10.73;;
6902;SDS011;20232;49.408;8.702;2022-07-23T06:03:00;11.90;;;10.80;;
6902;SDS011;20232;49.408;8.702;2022-07-23T06:05:25;15.37;;;10.97;;
6902;SDS011;20232;49.408;8.702;2022-07-23T06:07:51;11.40;;;10.40;;
6902;SDS011;20232;49.408;8.702;2022-07-23T06:10:18;11.60;;;10.40;;
6902;SDS011;20232;49.408;8.702;2022-07-23T06:12:43;11.60;;;10.57;;
6902;SDS011;20232;49.408;8.702;2022-07-23T06:15:09;10.87;;;9.90;;
6902;SDS011;20232;49.408;8.702;2022-07-23T06:17:35;12.27;;;11.07;;
6902;SDS011;20232;49.408;8.702;2022-07-23T06:20:01;9.47;;;8.67;;
6902;SDS011;20232;49.408;8.702;2022-07-23T06:22:26;9.63;;;8.80;;
6902;SDS011;20232;49.408;8.702;2022-07-23T06:24:52;8.27;;;7.47;;
6902;SDS011;20232;49.408;8.702;2022-07-23T06:27:18;8.30;;;7.50;;
6902;SDS011;20232;49.408;8.702;2022-07-23T06:29:43;8.87;;;8.07;;
6902;SDS011;20232;49.408;8.702;2022-07-23T06:32:09;7.83;;;7.23;;
6902;SDS011;20232;49.408;8.702;2022-07-23T06:34:34;7.63;;;7.00;;
6902;SDS011;20232;49.408;8.702;2022-07-23T06:37:00;9.90;;;8.90;;
6902;SDS011;20232;49.408;8.702;2022-07-23T06:39:26;10.70;;;9.70;;
6902;SDS011;20232;49.408;8.702;2022-07-23T06:41:51;10.63;;;9.73;;
6902;SDS011;20232;49.408;8.702;2022-07-23T06:44:17;11.53;;;10.03;;
6902;SDS011;20232;49.408;8.702;2022-07-23T06:46:43;11.57;;;10.37;;
6902;SDS011;20232;49.408;8.702;2022-07-23T06:49:09;12.30;;;11.00;;
6902;SDS011;20232;49.408;8.702;2022-07-23T06:51:34;13.00;;;10.23;;
6902;SDS011;20232;49.408;8.702;2022-07-23T06:54:00;12.67;;;11.03;;
6902;SDS011;20232;49.408;8.702;2022-07-23T06:56:26;12.23;;;11.03;;
6902;SDS011;20232;49.408;8.702;2022-07-23T06:58:52;11.90;;;10.60;;
6902;SDS011;20232;49.408;8.702;2022-07-23T07:01:17;11.40;;;10.40;;
6902;SDS011;20232;49.408;8.702;2022-07-23T07:03:43;12.23;;;11.10;;
6902;SDS011;20232;49.408;8.702;2022-07-23T07:06:09;12.53;;;10.70;;
6902;SDS011;20232;49.408;8.702;2022-07-23T07:08:35;12.43;;;11.23;;
6902;SDS011;20232;49.408;8.702;2022-07-23T07:11:00;14.10;;;11.40;;
6902;SDS011;20232;49.408;8.702;2022-07-23T07:13:26;13.27;;;12.03;;
6902;SDS011;20232;49.408;8.702;2022-07-23T07:15:51;13.00;;;11.70;;
6902;SDS011;20232;49.408;8.702;2022-07-23T07:18:17;13.23;;;11.40;;
6902;SDS011;20232;49.408;8.702;2022-07-23T07:20:43;12.13;;;11.00;;
6902;SDS011;20232;49.408;8.702;2022-07-23T07:23:08;9.87;;;8.97;;
6902;SDS011;20232;49.408;8.702;2022-07-23T07:25:34;12.33;;;11.13;;
6902;SDS011;20232;49.408;8.702;2022-07-23T07:28:00;11.63;;;10.43;;
6902;SDS011;20232;49.408;8.702;2022-07-23T07:30:25;12.07;;;10.87;;
6902;SDS011;20232;49.408;8.702;2022-07-23T07:32:51;11.93;;;10.73;;
6902;SDS011;20232;49.408;8.702;2022-07-23T07:35:17;12.67;;;11.37;;
6902;SDS011;20232;49.408;8.702;2022-07-23T07:37:42;10.80;;;9.80;;
6902;SDS011;20232;49.408;8.702;2022-07-23T07:40:08;10.60;;;9.60;;
6902;SDS011;20232;49.408;8.702;2022-07-23T07:42:34;10.27;;;9.33;;
6902;SDS011;20232;49.408;8.702;2022-07-23T07:44:59;10.40;;;9.37;;
6902;SDS011;20232;49.408;8.702;2022-07-23T07:47:25;10.83;;;9.73;;
6902;SDS011;20232;49.408;8.702;2022-07-23T07:49:51;9.80;;;8.80;;
6902;SDS011;20232;49.408;8.702;2022-07-23T07:52:16;10.50;;;9.50;;
6902;SDS011;20232;49.408;8.702;2022-07-23T07:54:42;10.40;;;9.30;;
6902;SDS011;20232;49.408;8.702;2022-07-23T07:57:08;10.13;;;9.10;;
6902;SDS011;20232;49.408;8.702;2022-07-23T07:59:34;9.23;;;8.53;;
6902;SDS011;20232;49.408;8.702;2022-07-23T08:01:59;10.73;;;9.67;;
6902;SDS011;20232;49.408;8.702;2022-07-23T08:04:25;10.13;;;9.10;;
6902;SDS011;20232;49.408;8.702;2022-07-23T08:06:50;9.20;;;8.07;;
6902;SDS011;20232;49.408;8.702;2022-07-23T08:09:16;10.17;;;9.13;;
6902;SDS011;20232;49.408;8.702;2022-07-23T08:11:42;11.70;;;9.27;;
6902;SDS011;20232;49.408;8.702;2022-07-23T08:14:07;9.83;;;8.97;;
6902;SDS011;20232;49.408;8.702;2022-07-23T08:16:34;12.63;;;9.10;;
6902;SDS011;20232;49.408;8.702;2022-07-23T08:18:59;10.03;;;9.03;;
6902;SDS011;20232;49.408;8.702;2022-07-23T08:21:25;10.73;;;8.57;;
6902;SDS011;20232;49.408;8.702;2022-07-23T08:23:51;9.57;;;8.53;;
6902;SDS011;20232;49.408;8.702;2022-07-23T08:26:16;9.40;;;8.60;;
6902;SDS011;20232;49.408;8.702;2022-07-23T08:28:42;9.33;;;8.53;;
6902;SDS011;20232;49.408;8.702;2022-07-23T08:31:07;9.47;;;8.60;;
6902;SDS011;20232;49.408;8.702;2022-07-23T08:33:33;9.70;;;8.70;;
6902;SDS011;20232;49.408;8.702;2022-07-23T08:35:59;6.93;;;6.33;;
6902;SDS011;20232;49.408;8.702;2022-07-23T08:38:27;10.70;;;9.60;;
6902;SDS011;20232;49.408;8.702;2022-07-23T08:40:54;11.57;;;10.43;;
6902;SDS011;20232;49.408;8.702;2022-07-23T08:43:23;9.97;;;9.17;;
6902;SDS011;20232;49.408;8.702;2022-07-23T08:45:51;9.13;;;8.17;;
6902;SDS011;20232;49.408;8.702;2022-07-23T08:48:22;7.20;;;6.60;;
6902;SDS011;20232;49.408;8.702;2022-07-23T08:50:50;11.43;;;10.33;;
6902;SDS011;20232;49.408;8.702;2022-07-23T08:53:19;9.03;;;8.23;;
6902;SDS011;20232;49.408;8.702;2022-07-23T08:55:46;10.93;;;9.90;;
6902;SDS011;20232;49.408;8.702;2022-07-23T08:58:14;9.90;;;9.10;;
6902;SDS011;20232;49.408;8.702;2022-07-23T09:00:40;10.97;;;9.87;;
6902;SDS011;20232;49.408;8.702;2022-07-23T09:03:06;9.60;;;8.60;;
6902;SDS011;20232;49.408;8.702;2022-07-23T09:05:32;11.20;;;10.10;;
6902;SDS011;20232;49.408;8.702;2022-07-23T09:10:43;11.23;;;10.23;;
6902;SDS011;20232;49.408;8.702;2022-07-23T09:16:14;7.60;;;6.80;;
6902;SDS011;20232;49.408;8.702;2022-07-23T09:18:55;8.13;;;7.37;;
6902;SDS011;20232;49.408;8.702;2022-07-23T09:21:38;8.23;;;7.43;;
6902;SDS011;20232;49.408;8.702;2022-07-23T09:24:04;9.30;;;8.37;;
6902;SDS011;20232;49.408;8.702;2022-07-23T09:26:40;10.00;;;8.90;;
6902;SDS011;20232;49.408;8.702;2022-07-23T09:29:11;9.77;;;8.97;;
6902;SDS011;20232;49.408;8.702;2022-07-23T09:34:17;9.37;;;8.47;;
6902;SDS011;20232;49.408;8.702;2022-07-23T09:36:48;8.67;;;7.83;;
6902;SDS011;20232;49.408;8.702;2022-07-23T09:39:15;7.73;;;6.93;;
6902;SDS011;20232;49.408;8.702;2022-07-23T09:41:47;10.33;;;9.13;;
6902;SDS011;20232;49.408;8.702;2022-07-23T09:44:16;9.00;;;8.10;;
6902;SDS011;20232;49.408;8.702;2022-07-23T09:46:50;8.00;;;7.20;;
6902;SDS011;20232;49.408;8.702;2022-07-23T09:49:23;7.20;;;6.50;;
6902;SDS011;20232;49.408;8.702;2022-07-23T09:51:57;8.93;;;8.17;;
6902;SDS011;20232;49.408;8.702;2022-07-23T09:56:56;6.23;;;5.70;;
6902;SDS011;20232;49.408;8.702;2022-07-23T09:59:23;8.97;;;7.53;;
6902;SDS011;20232;49.408;8.702;2022-07-23T10:01:52;5.43;;;4.93;;
6902;SDS011;20232;49.408;8.702;2022-07-23T10:04:20;9.63;;;7.67;;
6902;SDS011;20232;49.408;8.702;2022-07-23T10:06:46;6.17;;;5.57;;
6902;SDS011;20232;49.408;8.702;2022-07-23T10:09:12;8.90;;;6.43;;
6902;SDS011;20232;49.408;8.702;2022-07-23T10:11:44;9.83;;;6.17;;
6902;SDS011;20232;49.408;8.702;2022-07-23T10:14:09;8.07;;;7.37;;
6902;SDS011;20232;49.408;8.702;2022-07-23T10:16:35;10.40;;;6.90;;
6902;SDS011;20232;49.408;8.702;2022-07-23T10:19:03;8.40;;;7.60;;
6902;SDS011;20232;49.408;8.702;2022-07-23T10:24:19;5.80;;;5.30;;
6902;SDS011;20232;49.408;8.702;2022-07-23T10:27:09;7.30;;;6.60;;
6902;SDS011;20232;49.408;8.702;2022-07-23T10:29:52;8.00;;;7.20;;
6902;SDS011;20232;49.408;8.702;2022-07-23T10:32:31;7.60;;;6.97;;
6902;SDS011;20232;49.408;8.702;2022-07-23T10:35:06;7.37;;;6.63;;
6902;SDS011;20232;49.408;8.702;2022-07-23T10:37:42;8.80;;;7.97;;
6902;SDS011;20232;49.408;8.702;2022-07-23T10:40:20;8.93;;;8.07;;
6902;SDS011;20232;49.408;8.702;2022-07-23T10:42:48;7.03;;;6.33;;
6902;SDS011;20232;49.408;8.702;2022-07-23T10:45:30;6.33;;;5.73;;
6902;SDS011;20232;49.408;8.702;2022-07-23T10:48:19;6.63;;;5.97;;
6902;SDS011;20232;49.408;8.702;2022-07-23T10:59:21;5.67;;;5.17;;
6902;SDS011;20232;49.408;8.702;2022-07-23T11:01:47;6.63;;;6.13;;
6902;SDS011;20232;49.408;8.702;2022-07-23T11:04:13;4.93;;;4.53;;
6902;SDS011;20232;49.408;8.702;2022-07-23T11:17:23;5.80;;;5.30;;
6902;SDS011;20232;49.408;8.702;2022-07-23T11:25:12;5.73;;;5.33;;
6902;SDS011;20232;49.408;8.702;2022-07-23T11:28:15;5.63;;;5.13;;
6902;SDS011;20232;49.408;8.702;2022-07-23T11:30:43;5.90;;;5.40;;
6902;SDS011;20232;49.408;8.702;2022-07-23T11:33:15;6.23;;;5.67;;
6902;SDS011;20232;49.408;8.702;2022-07-23T11:35:43;4.93;;;4.53;;
6902;SDS011;20232;49.408;8.702;2022-07-23T11:38:21;5.50;;;4.80;;
6902;SDS011;20232;49.408;8.702;2022-07-23T11:40:48;5.33;;;4.93;;
6902;SDS011;20232;49.408;8.702;2022-07-23T11:43:16;6.60;;;5.90;;
6902;SDS011;20232;49.408;8.702;2022-07-23T11:45:43;5.00;;;4.60;;
6902;SDS011;20232;49.408;8.702;2022-07-23T11:50:44;6.57;;;5.97;;
6902;SDS011;20232;49.408;8.702;2022-07-23T11:53:10;5.80;;;5.17;;
6902;SDS011;20232;49.408;8.702;2022-07-23T11:55:35;5.60;;;5.13;;
6902;SDS011;20232;49.408;8.702;2022-07-23T11:58:01;6.00;;;5.50;;
6902;SDS011;20232;49.408;8.702;2022-07-23T12:00:28;6.57;;;5.63;;
6902;SDS011;20232;49.408;8.702;2022-07-23T12:02:56;6.23;;;5.63;;
6902;SDS011;20232;49.408;8.702;2022-07-23T12:07:56;6.20;;;5.60;;
6902;SDS011;20232;49.408;8.702;2022-07-23T12:10:23;5.20;;;4.80;;
6902;SDS011;20232;49.408;8.702;2022-07-23T12:15:23;5.93;;;5.33;;
6902;SDS011;20232;49.408;8.702;2022-07-23T12:17:51;6.67;;;6.07;;
6902;SDS011;20232;49.408;8.702;2022-07-23T12:20:20;6.83;;;6.23;;
6902;SDS011;20232;49.408;8.702;2022-07-23T12:22:48;6.10;;;5.50;;
6902;SDS011;20232;49.408;8.702;2022-07-23T12:25:20;6.00;;;5.33;;
6902;SDS011;20232;49.408;8.702;2022-07-23T12:27:57;6.20;;;5.10;;
6902;SDS011;20232;49.408;8.702;2022-07-23T12:30:39;6.33;;;5.73;;
6902;SDS011;20232;49.408;8.702;2022-07-23T12:33:07;7.57;;;6.67;;
6902;SDS011;20232;49.408;8.702;2022-07-23T12:35:36;7.93;;;7.20;;
6902;SDS011;20232;49.408;8.702;2022-07-23T12:38:03;5.97;;;5.47;;
6902;SDS011;20232;49.408;8.702;2022-07-23T12:43:09;6.67;;;6.07;;
6902;SDS011;20232;49.408;8.702;2022-07-23T12:48:29;7.50;;;6.00;;
6902;SDS011;20232;49.408;8.702;2022-07-23T12:51:00;6.17;;;5.53;;
6902;SDS011;20232;49.408;8.702;2022-07-23T12:53:28;6.73;;;6.03;;
6902;SDS011;20232;49.408;8.702;2022-07-23T12:56:13;7.40;;;6.73;;
6902;SDS011;20232;49.408;8.702;2022-07-23T12:58:47;6.70;;;6.20;;
6902;SDS011;20232;49.408;8.702;2022-07-23T13:01:24;6.70;;;6.10;;
6902;SDS011;20232;49.408;8.702;2022-07-23T13:04:04;6.53;;;5.93;;
6902;SDS011;20232;49.408;8.702;2022-07-23T13:06:33;6.73;;;6.13;;
6902;SDS011;20232;49.408;8.702;2022-07-23T13:08:59;7.60;;;7.00;;
6902;SDS011;20232;49.408;8.702;2022-07-23T13:11:27;6.50;;;6.00;;
6902;SDS011;20232;49.408;8.702;2022-07-23T13:13:52;7.20;;;6.50;;
6902;SDS011;20232;49.408;8.702;2022-07-23T13:16:18;6.67;;;5.97;;
6902;SDS011;20232;49.408;8.702;2022-07-23T13:18:44;6.87;;;6.17;;
6902;SDS011;20232;49.408;8.702;2022-07-23T13:21:09;6.60;;;5.97;;
6902;SDS011;20232;49.408;8.702;2022-07-23T13:23:35;7.07;;;6.37;;
6902;SDS011;20232;49.408;8.702;2022-07-23T13:26:01;6.90;;;6.20;;
6902;SDS011;20232;49.408;8.702;2022-07-23T13:28:27;7.23;;;5.90;;
6902;SDS011;20232;49.408;8.702;2022-07-23T13:30:53;6.80;;;6.07;;
6902;SDS011;20232;49.408;8.702;2022-07-23T13:33:19;7.47;;;6.50;;
6902;SDS011;20232;49.408;8.702;2022-07-23T13:35:45;7.73;;;6.97;;
6902;SDS011;20232;49.408;8.702;2022-07-23T13:38:12;7.17;;;6.53;;
6902;SDS011;20232;49.408;8.702;2022-07-23T13:40:38;7.00;;;6.30;;
6902;SDS011;20232;49.408;8.702;2022-07-23T13:43:07;7.10;;;6.40;;
6902;SDS011;20232;49.408;8.702;2022-07-23T13:45:37;7.10;;;6.30;;
6902;SDS011;20232;49.408;8.702;2022-07-23T13:48:03;6.33;;;5.70;;
6902;SDS011;20232;49.408;8.702;2022-07-23T13:50:30;6.87;;;6.30;;
6902;SDS011;20232;49.408;8.702;2022-07-23T13:52:55;7.30;;;6.60;;
6902;SDS011;20232;49.408;8.702;2022-07-23T13:55:21;7.97;;;6.57;;
6902;SDS011;20232;49.408;8.702;2022-07-23T13:57:47;6.90;;;6.40;;
6902;SDS011;20232;49.408;8.702;2022-07-23T14:00:13;6.70;;;6.03;;
6902;SDS011;20232;49.408;8.702;2022-07-23T14:02:39;6.73;;;6.03;;
6902;SDS011;20232;49.408;8.702;2022-07-23T14:05:06;6.90;;;6.20;;
6902;SDS011;20232;49.408;8.702;2022-07-23T14:07:34;6.13;;;5.63;;
6902;SDS011;20232;49.408;8.702;2022-07-23T14:10:00;6.60;;;6.07;;
6902;SDS011;20232;49.408;8.702;2022-07-23T14:12:27;6.50;;;5.87;;
6902;SDS011;20232;49.408;8.702;2022-07-23T14:14:52;6.70;;;6.20;;
6902;SDS011;20232;49.408;8.702;2022-07-23T14:17:18;7.50;;;6.80;;
6902;SDS011;20232;49.408;8.702;2022-07-23T14:19:44;7.30;;;6.70;;
6902;SDS011;20232;49.408;8.702;2022-07-23T14:22:09;7.00;;;6.50;;
6902;SDS011;20232;49.408;8.702;2022-07-23T14:24:35;6.87;;;6.30;;
6902;SDS011;20232;49.408;8.702;2022-07-23T14:27:01;7.47;;;6.40;;
6902;SDS011;20232;49.408;8.702;2022-07-23T14:29:28;9.47;;;6.53;;
6902;SDS011;20232;49.408;8.702;2022-07-23T14:31:54;7.43;;;6.73;;
6902;SDS011;20232;49.408;8.702;2022-07-23T14:34:19;6.50;;;5.97;;
6902;SDS011;20232;49.408;8.702;2022-07-23T14:36:45;7.10;;;6.40;;
6902;SDS011;20232;49.408;8.702;2022-07-23T14:39:11;6.70;;;6.07;;
6902;SDS011;20232;49.408;8.702;2022-07-23T14:41:37;6.70;;;6.10;;
6902;SDS011;20232;49.408;8.702;2022-07-23T14:44:03;7.03;;;6.40;;
6902;SDS011;20232;49.408;8.702;2022-07-23T14:46:29;6.50;;;5.90;;
6902;SDS011;20232;49.408;8.702;2022-07-23T14:48:55;6.10;;;5.60;;
6902;SDS011;20232;49.408;8.702;2022-07-23T14:51:20;6.60;;;5.90;;
6902;SDS011;20232;49.408;8.702;2022-07-23T14:53:46;5.90;;;5.40;;
6902;SDS011;20232;49.408;8.702;2022-07-23T14:56:12;7.30;;;6.60;;
6902;SDS011;20232;49.408;8.702;2022-07-23T14:58:38;6.57;;;5.97;;
6902;SDS011;20232;49.408;8.702;2022-07-23T15:01:05;6.63;;;6.00;;
6902;SDS011;20232;49.408;8.702;2022-07-23T15:03:31;8.07;;;6.80;;
6902;SDS011;20232;49.408;8.702;2022-07-23T15:05:56;7.13;;;5.63;;
6902;SDS011;20232;49.408;8.702;2022-07-23T15:08:22;6.97;;;6.27;;
6902;SDS011;20232;49.408;8.702;2022-07-23T15:10:47;6.60;;;6.00;;
6902;SDS011;20232;49.408;8.702;2022-07-23T15:13:13;7.63;;;5.97;;
6902;SDS011;20232;49.408;8.702;2022-07-23T15:15:39;7.33;;;6.27;;
6902;SDS011;20232;49.408;8.702;2022-07-23T15:18:04;6.53;;;5.90;;
6902;SDS011;20232;49.408;8.702;2022-07-23T15:20:30;6.40;;;5.30;;
6902;SDS011;20232;49.408;8.702;2022-07-23T15:22:56;6.70;;;5.93;;
6902;SDS011;20232;49.408;8.702;2022-07-23T15:25:22;6.70;;;6.10;;
6902;SDS011;20232;49.408;8.702;2022-07-23T15:27:48;7.70;;;6.13;;
6902;SDS011;20232;49.408;8.702;2022-07-23T15:30:14;6.97;;;6.27;;
6902;SDS011;20232;49.408;8.702;2022-07-23T15:32:39;6.30;;;5.80;;
6902;SDS011;20232;49.408;8.702;2022-07-23T15:35:05;6.73;;;6.17;;
6902;SDS011;20232;49.408;8.702;2022-07-23T15:37:33;6.57;;;5.90;;
6902;SDS011;20232;49.408;8.702;2022-07-23T15:39:59;7.17;;;6.30;;
6902;SDS011;20232;49.408;8.702;2022-07-23T15:42:25;7.00;;;6.33;;
6902;SDS011;20232;49.408;8.702;2022-07-23T15:44:51;6.27;;;5.67;;
6902;SDS011;20232;49.408;8.702;2022-07-23T15:47:17;6.97;;;6.37;;
6902;SDS011;20232;49.408;8.702;2022-07-23T15:49:46;7.17;;;6.57;;
6902;SDS011;20232;49.408;8.702;2022-07-23T15:52:11;7.17;;;6.53;;
6902;SDS011;20232;49.408;8.702;2022-07-23T15:54:37;7.80;;;6.63;;
6902;SDS011;20232;49.408;8.702;2022-07-23T15:57:04;7.87;;;7.07;;
6902;SDS011;20232;49.408;8.702;2022-07-23T15:59:30;7.07;;;6.40;;
6902;SDS011;20232;49.408;8.702;2022-07-23T16:01:56;7.27;;;5.97;;
6902;SDS011;20232;49.408;8.702;2022-07-23T16:04:22;6.90;;;6.40;;
6902;SDS011;20232;49.408;8.702;2022-07-23T16:06:48;6.73;;;6.13;;
6902;SDS011;20232;49.408;8.702;2022-07-23T16:09:14;6.47;;;5.83;;
6902;SDS011;20232;49.408;8.702;2022-07-23T16:11:40;6.43;;;5.93;;
6902;SDS011;20232;49.408;8.702;2022-07-23T16:14:05;7.80;;;7.03;;
6902;SDS011;20232;49.408;8.702;2022-07-23T16:16:31;7.57;;;6.50;;
6902;SDS011;20232;49.408;8.702;2022-07-23T16:18:57;6.60;;;6.00;;
6902;SDS011;20232;49.408;8.702;2022-07-23T16:21:23;7.77;;;6.50;;
6902;SDS011;20232;49.408;8.702;2022-07-23T16:23:49;7.53;;;6.93;;
6902;SDS011;20232;49.408;8.702;2022-07-23T16:26:15;7.63;;;6.90;;
6902;SDS011;20232;49.408;8.702;2022-07-23T16:28:42;7.10;;;6.50;;
6902;SDS011;20232;49.408;8.702;2022-07-23T16:31:09;7.17;;;6.47;;
6902;SDS011;20232;49.408;8.702;2022-07-23T16:33:35;6.77;;;6.17;;
6902;SDS011;20232;49.408;8.702;2022-07-23T16:36:01;6.97;;;6.47;;
6902;SDS011;20232;49.408;8.702;2022-07-23T16:38:27;7.30;;;6.70;;
6902;SDS011;20232;49.408;8.702;2022-07-23T16:40:53;7.83;;;6.93;;
6902;SDS011;20232;49.408;8.702;2022-07-23T16:43:20;6.73;;;6.23;;
6902;SDS011;20232;49.408;8.702;2022-07-23T16:45:46;7.20;;;6.50;;
6902;SDS011;20232;49.408;8.702;2022-07-23T16:48:12;7.10;;;6.50;;
6902;SDS011;20232;49.408;8.702;2022-07-23T16:50:37;6.90;;;5.93;;
6902;SDS011;20232;49.408;8.702;2022-07-23T16:53:03;6.90;;;6.17;;
6902;SDS011;20232;49.408;8.702;2022-07-23T16:55:29;9.97;;;6.73;;
6902;SDS011;20232;49.408;8.702;2022-07-23T16:57:54;7.20;;;6.50;;
6902;SDS011;20232;49.408;8.702;2022-07-23T17:00:20;7.53;;;6.70;;
6902;SDS011;20232;49.408;8.702;2022-07-23T17:02:46;7.40;;;6.63;;
6902;SDS011;20232;49.408;8.702;2022-07-23T17:05:11;7.30;;;6.60;;
6902;SDS011;20232;49.408;8.702;2022-07-23T17:07:37;6.80;;;6.20;;
6902;SDS011;20232;49.408;8.702;2022-07-23T17:10:03;6.87;;;6.37;;
6902;SDS011;20232;49.408;8.702;2022-07-23T17:12:30;7.00;;;6.30;;
6902;SDS011;20232;49.408;8.702;2022-07-23T17:14:56;6.57;;;5.97;;
6902;SDS011;20232;49.408;8.702;2022-07-23T17:17:22;7.33;;;6.33;;
6902;SDS011;20232;49.408;8.702;2022-07-23T17:19:48;7.47;;;6.77;;
6902;SDS011;20232;49.408;8.702;2022-07-23T17:22:13;8.20;;;6.77;;
6902;SDS011;20232;49.408;8.702;2022-07-23T17:24:39;8.03;;;6.63;;
6902;SDS011;20232;49.408;8.702;2022-07-23T17:27:05;7.13;;;6.30;;
6902;SDS011;20232;49.408;8.702;2022-07-23T17:29:30;7.53;;;6.33;;
6902;SDS011;20232;49.408;8.702;2022-07-23T17:31:56;7.10;;;6.17;;
6902;SDS011;20232;49.408;8.702;2022-07-23T17:34:22;7.67;;;6.47;;
6902;SDS011;20232;49.408;8.702;2022-07-23T17:36:47;7.47;;;6.73;;
6902;SDS011;20232;49.408;8.702;2022-07-23T17:39:16;6.20;;;5.70;;
6902;SDS011;20232;49.408;8.702;2022-07-23T17:41:43;7.13;;;6.43;;
6902;SDS011;20232;49.408;8.702;2022-07-23T17:44:15;6.93;;;6.33;;
6902;SDS011;20232;49.408;8.702;2022-07-23T17:46:42;7.50;;;6.80;;
6902;SDS011;20232;49.408;8.702;2022-07-23T17:49:08;6.63;;;6.03;;
6902;SDS011;20232;49.408;8.702;2022-07-23T17:51:33;8.87;;;6.97;;
6902;SDS011;20232;49.408;8.702;2022-07-23T17:53:59;9.80;;;8.90;;
6902;SDS011;20232;49.408;8.702;2022-07-23T17:56:25;7.23;;;6.47;;
6902;SDS011;20232;49.408;8.702;2022-07-23T17:58:51;9.47;;;8.43;;
6902;SDS011;20232;49.408;8.702;2022-07-23T18:01:16;9.93;;;7.63;;
6902;SDS011;20232;49.408;8.702;2022-07-23T18:03:42;7.77;;;7.07;;
6902;SDS011;20232;49.408;8.702;2022-07-23T18:06:11;7.20;;;6.60;;
6902;SDS011;20232;49.408;8.702;2022-07-23T18:08:37;7.50;;;6.80;;
6902;SDS011;20232;49.408;8.702;2022-07-23T18:11:03;7.27;;;6.67;;
6902;SDS011;20232;49.408;8.702;2022-07-23T18:13:28;9.90;;;7.20;;
6902;SDS011;20232;49.408;8.702;2022-07-23T18:15:54;10.27;;;9.37;;
6902;SDS011;20232;49.408;8.702;2022-07-23T18:18:20;7.00;;;6.40;;
6902;SDS011;20232;49.408;8.702;2022-07-23T18:20:46;8.67;;;7.20;;
6902;SDS011;20232;49.408;8.702;2022-07-23T18:23:13;7.10;;;6.43;;
6902;SDS011;20232;49.408;8.702;2022-07-23T18:25:39;7.93;;;7.03;;
6902;SDS011;20232;49.408;8.702;2022-07-23T18:28:04;6.90;;;6.27;;
6902;SDS011;20232;49.408;8.702;2022-07-23T18:30:30;7.93;;;6.73;;
6902;SDS011;20232;49.408;8.702;2022-07-23T18:32:56;8.40;;;6.70;;
6902;SDS011;20232;49.408;8.702;2022-07-23T18:35:21;7.50;;;6.80;;
6902;SDS011;20232;49.408;8.702;2022-07-23T18:37:47;7.73;;;7.03;;
6902;SDS011;20232;49.408;8.702;2022-07-23T18:40:13;8.30;;;7.50;;
6902;SDS011;20232;49.408;8.702;2022-07-23T18:42:39;9.77;;;8.87;;
6902;SDS011;20232;49.408;8.702;2022-07-23T18:45:05;9.67;;;8.67;;
6902;SDS011;20232;49.408;8.702;2022-07-23T18:47:32;9.90;;;8.90;;
6902;SDS011;20232;49.408;8.702;2022-07-23T18:49:59;7.87;;;7.13;;
6902;SDS011;20232;49.408;8.702;2022-07-23T18:52:24;7.63;;;7.00;;
6902;SDS011;20232;49.408;8.702;2022-07-23T18:54:50;8.90;;;7.67;;
6902;SDS011;20232;49.408;8.702;2022-07-23T18:57:16;9.43;;;7.10;;
6902;SDS011;20232;49.408;8.702;2022-07-23T18:59:42;7.83;;;6.90;;
6902;SDS011;20232;49.408;8.702;2022-07-23T19:02:08;7.53;;;6.83;;
6902;SDS011;20232;49.408;8.702;2022-07-23T19:04:33;7.23;;;6.50;;
6902;SDS011;20232;49.408;8.702;2022-07-23T19:06:59;6.90;;;6.30;;
6902;SDS011;20232;49.408;8.702;2022-07-23T19:09:25;7.30;;;6.70;;
6902;SDS011;20232;49.408;8.702;2022-07-23T19:11:50;7.20;;;6.50;;
6902;SDS011;20232;49.408;8.702;2022-07-23T19:14:16;8.13;;;6.50;;
6902;SDS011;20232;49.408;8.702;2022-07-23T19:16:42;7.07;;;6.47;;
6902;SDS011;20232;49.408;8.702;2022-07-23T19:19:08;7.90;;;7.10;;
6902;SDS011;20232;49.408;8.702;2022-07-23T19:21:34;6.93;;;6.40;;
6902;SDS011;20232;49.408;8.702;2022-07-23T19:23:59;7.90;;;6.37;;
6902;SDS011;20232;49.408;8.702;2022-07-23T19:26:26;6.93;;;6.33;;
6902;SDS011;20232;49.408;8.702;2022-07-23T19:28:51;7.07;;;6.47;;
6902;SDS011;20232;49.408;8.702;2022-07-23T19:31:18;7.83;;;6.87;;
6902;SDS011;20232;49.408;8.702;2022-07-23T19:33:47;6.73;;;6.23;;
6902;SDS011;20232;49.408;8.702;2022-07-23T19:36:14;7.30;;;6.57;;
6902;SDS011;20232;49.408;8.702;2022-07-23T19:38:40;7.07;;;6.37;;
6902;SDS011;20232;49.408;8.702;2022-07-23T19:41:06;7.40;;;6.70;;
6902;SDS011;20232;49.408;8.702;2022-07-23T19:43:33;7.93;;;6.90;;
6902;SDS011;20232;49.408;8.702;2022-07-23T19:45:59;7.33;;;6.67;;
6902;SDS011;20232;49.408;8.702;2022-07-23T19:48:24;7.50;;;6.80;;